createdAt,value
2023-04-06T00:01:26.915Z,11.50
2023-04-06T00:03:53.870Z,12.60
2023-04-06T00:06:21.024Z,10.53
2023-04-06T00:08:47.793Z,10.00
2023-04-06T00:11:14.611Z,11.00
2023-04-06T00:13:41.374Z,10.00
2023-04-06T00:16:08.271Z,11.03
2023-04-06T00:18:35.260Z,13.10
2023-04-06T00:21:02.035Z,10.73
2023-04-06T00:23:28.843Z,11.97
2023-04-06T00:25:56.495Z,12.13
2023-04-06T00:28:26.927Z,12.83
2023-04-06T00:30:56.301Z,11.60
2023-04-06T00:33:24.559Z,11.73
2023-04-06T00:35:52.199Z,10.47
2023-04-06T00:38:20.415Z,12.23
2023-04-06T00:40:47.405Z,11.37
2023-04-06T00:43:15.541Z,11.23
2023-04-06T00:45:43.369Z,9.37
2023-04-06T00:48:10.518Z,9.60
2023-04-06T00:50:37.652Z,11.13
2023-04-06T00:53:04.812Z,11.07
2023-04-06T00:55:31.809Z,10.50
2023-04-06T00:58:04.903Z,9.63
2023-04-06T01:00:38.562Z,11.90
2023-04-06T01:03:07.807Z,10.07
2023-04-06T01:05:41.879Z,11.33
2023-04-06T01:08:16.936Z,10.30
2023-04-06T01:10:43.993Z,11.37
2023-04-06T01:13:20.639Z,10.67
2023-04-06T01:15:56.243Z,11.13
2023-04-06T01:18:32.330Z,10.80
2023-04-06T01:21:26.358Z,9.87
2023-04-06T01:24:12.033Z,11.67
2023-04-06T01:26:57.777Z,12.47
2023-04-06T01:29:27.827Z,11.97
2023-04-06T01:31:55.210Z,11.53
2023-04-06T01:34:22.250Z,11.30
2023-04-06T01:36:49.185Z,11.47
2023-04-06T01:39:23.096Z,11.07
2023-04-06T01:41:50.058Z,10.90
2023-04-06T01:44:20.035Z,11.23
2023-04-06T01:46:52.190Z,10.90
2023-04-06T01:49:19.997Z,11.73
2023-04-06T01:51:51.969Z,11.00
2023-04-06T01:54:18.836Z,11.70
2023-04-06T01:56:55.125Z,10.37
2023-04-06T01:59:35.363Z,10.63
2023-04-06T02:02:08.064Z,11.43
2023-04-06T02:04:36.566Z,11.37
2023-04-06T02:07:10.927Z,11.37
2023-04-06T02:09:37.872Z,11.33
2023-04-06T02:12:07.746Z,10.77
2023-04-06T02:14:35.137Z,11.47
2023-04-06T02:17:02.036Z,10.63
2023-04-06T02:19:28.925Z,11.30
2023-04-06T02:21:55.725Z,10.03
2023-04-06T02:24:23.399Z,11.07
2023-04-06T02:26:50.265Z,11.07
2023-04-06T02:29:17.059Z,11.10
2023-04-06T02:31:44.207Z,11.37
2023-04-06T02:34:13.225Z,11.33
2023-04-06T02:36:48.410Z,11.43
2023-04-06T02:39:15.397Z,11.87
2023-04-06T02:41:42.330Z,10.07
2023-04-06T02:44:10.567Z,11.80
2023-04-06T02:46:41.177Z,14.47
2023-04-06T02:49:08.550Z,10.63
2023-04-06T02:51:36.660Z,11.47
2023-04-06T02:54:15.397Z,11.93
2023-04-06T02:56:42.174Z,10.70
2023-04-06T02:59:09.657Z,10.53
2023-04-06T03:01:37.129Z,11.97
2023-04-06T03:04:05.890Z,12.43
2023-04-06T03:06:32.776Z,11.23
2023-04-06T03:09:08.961Z,13.50
2023-04-06T03:11:36.686Z,10.87
2023-04-06T03:14:03.488Z,11.33
2023-04-06T03:16:30.403Z,10.77
2023-04-06T03:18:57.540Z,10.33
2023-04-06T03:21:24.465Z,12.07
2023-04-06T03:23:52.992Z,11.50
2023-04-06T03:26:20.323Z,10.90
2023-04-06T03:28:47.114Z,9.70
2023-04-06T03:31:14.669Z,12.30
2023-04-06T03:33:56.163Z,10.73
2023-04-06T03:36:29.739Z,10.30
2023-04-06T03:38:58.025Z,11.03
2023-04-06T03:41:25.050Z,9.73
2023-04-06T03:43:59.121Z,10.27
2023-04-06T03:46:26.123Z,14.13
2023-04-06T03:48:56.246Z,10.77
2023-04-06T03:51:24.648Z,10.57
2023-04-06T03:53:51.417Z,11.17
2023-04-06T03:56:18.478Z,10.53
2023-04-06T03:58:51.413Z,11.27
2023-04-06T04:01:21.276Z,12.40
2023-04-06T04:03:50.285Z,11.13
2023-04-06T04:06:18.556Z,9.73
2023-04-06T04:08:45.609Z,11.77
2023-04-06T04:11:12.410Z,12.23
2023-04-06T04:13:39.277Z,12.00
2023-04-06T04:16:07.942Z,11.53
2023-04-06T04:18:36.103Z,11.00
2023-04-06T04:21:02.963Z,10.87
2023-04-06T04:23:29.863Z,11.63
2023-04-06T04:25:56.648Z,11.73
2023-04-06T04:28:23.762Z,12.37
2023-04-06T04:30:54.336Z,11.67
2023-04-06T04:33:22.305Z,10.77
2023-04-06T04:35:50.751Z,10.80
2023-04-06T04:38:20.609Z,10.67
2023-04-06T04:40:51.974Z,11.43
2023-04-06T04:43:18.770Z,10.63
2023-04-06T04:45:45.737Z,12.07
2023-04-06T04:48:25.276Z,11.20
2023-04-06T04:50:56.869Z,11.17
2023-04-06T04:53:27.617Z,11.63
2023-04-06T04:56:00.734Z,11.70
2023-04-06T04:58:28.017Z,11.90
2023-04-06T05:00:58.050Z,11.87
2023-04-06T05:03:27.926Z,12.80
2023-04-06T05:05:59.374Z,11.87
2023-04-06T05:08:30.144Z,11.70
2023-04-06T05:10:57.704Z,10.53
2023-04-06T05:13:25.308Z,11.87
2023-04-06T05:15:53.958Z,12.43
2023-04-06T05:18:27.173Z,11.50
2023-04-06T05:20:55.241Z,11.27
2023-04-06T05:23:28.763Z,11.97
2023-04-06T05:25:56.210Z,12.13
2023-04-06T05:28:23.713Z,13.27
2023-04-06T05:30:50.809Z,12.37
2023-04-06T05:33:17.722Z,11.93
2023-04-06T05:36:02.817Z,11.93
2023-04-06T05:38:30.163Z,11.10
2023-04-06T05:41:01.739Z,12.80
2023-04-06T05:43:32.302Z,11.73
2023-04-06T05:46:00.403Z,13.77
2023-04-06T05:48:27.274Z,12.90
2023-04-06T05:50:54.337Z,14.07
2023-04-06T05:53:27.396Z,12.30
2023-04-06T05:55:57.498Z,12.17
2023-04-06T05:58:24.335Z,13.40
2023-04-06T06:01:04.505Z,14.07
2023-04-06T06:03:38.429Z,13.07
2023-04-06T06:06:06.747Z,13.50
2023-04-06T06:08:43.390Z,14.03
2023-04-06T06:11:15.123Z,14.13
2023-04-06T06:13:42.363Z,13.67
2023-04-06T06:16:09.941Z,14.23
2023-04-06T06:18:42.301Z,14.67
2023-04-06T06:21:09.180Z,19.07
2023-04-06T06:23:36.302Z,15.67
2023-04-06T06:26:03.255Z,14.37
2023-04-06T06:28:30.968Z,15.50
2023-04-06T06:30:58.108Z,18.37
2023-04-06T06:33:27.053Z,15.40
2023-04-06T06:35:55.172Z,14.53
2023-04-06T06:38:23.768Z,13.53
2023-04-06T06:40:50.936Z,14.10
2023-04-06T06:43:17.995Z,15.03
2023-04-06T06:45:56.839Z,14.73
2023-04-06T06:48:23.690Z,15.80
2023-04-06T06:50:50.848Z,18.13
2023-04-06T06:53:17.923Z,19.63
2023-04-06T06:55:45.394Z,16.40
2023-04-06T06:58:12.464Z,13.70
2023-04-06T07:00:39.485Z,14.77
2023-04-06T07:03:07.650Z,16.03
2023-04-06T07:05:34.666Z,13.83
2023-04-06T07:08:01.622Z,17.10
2023-04-06T07:10:28.792Z,18.00
2023-04-06T07:12:56.428Z,17.53
2023-04-06T07:15:24.393Z,17.07
2023-04-06T07:17:53.136Z,19.47
2023-04-06T07:20:20.169Z,18.43
2023-04-06T07:22:47.418Z,18.10
2023-04-06T07:25:14.354Z,21.57
2023-04-06T07:27:41.908Z,17.93
2023-04-06T07:30:09.398Z,19.93
2023-04-06T07:32:36.846Z,13.23
2023-04-06T07:35:04.878Z,12.60
2023-04-06T07:37:31.771Z,15.17
2023-04-06T07:39:58.640Z,10.33
2023-04-06T07:42:25.691Z,11.67
2023-04-06T07:44:52.559Z,10.90
2023-04-06T07:47:19.550Z,12.70
2023-04-06T07:49:46.562Z,14.33
2023-04-06T07:52:13.782Z,9.77
2023-04-06T07:54:42.972Z,11.37
2023-04-06T07:57:09.781Z,12.60
2023-04-06T07:59:36.613Z,10.63
2023-04-06T08:02:03.496Z,11.47
2023-04-06T08:04:30.482Z,12.37
2023-04-06T08:06:57.444Z,10.60
2023-04-06T08:09:24.295Z,13.30
2023-04-06T08:11:51.146Z,10.03
2023-04-06T08:14:17.944Z,14.00
2023-04-06T08:16:45.013Z,10.20
2023-04-06T08:19:12.173Z,10.57
2023-04-06T08:21:40.976Z,12.00
2023-04-06T08:24:08.159Z,11.57
2023-04-06T08:26:35.542Z,11.63
2023-04-06T08:29:02.558Z,13.07
2023-04-06T08:31:29.437Z,11.83
2023-04-06T08:33:56.467Z,12.33
2023-04-06T08:36:23.982Z,14.30
2023-04-06T08:38:51.353Z,13.90
2023-04-06T08:41:18.828Z,11.30
2023-04-06T08:43:57.748Z,12.23
2023-04-06T08:46:30.875Z,12.53
2023-04-06T08:49:01.348Z,16.27
2023-04-06T08:51:30.992Z,12.33
2023-04-06T08:54:00.070Z,13.80
2023-04-06T08:56:29.178Z,13.77
2023-04-06T08:58:57.064Z,14.47
2023-04-06T09:01:28.884Z,12.67
2023-04-06T09:04:01.755Z,15.43
2023-04-06T09:06:29.211Z,15.27
2023-04-06T09:08:56.125Z,12.33
2023-04-06T09:11:23.488Z,14.03
2023-04-06T09:13:56.591Z,14.40
2023-04-06T09:16:24.460Z,14.70
2023-04-06T09:18:51.708Z,13.80
2023-04-06T09:21:21.517Z,12.00
2023-04-06T09:24:03.657Z,12.87
2023-04-06T09:26:31.083Z,13.20
2023-04-06T09:29:01.185Z,16.47
2023-04-06T09:31:31.394Z,19.87
2023-04-06T09:33:58.745Z,15.93
2023-04-06T09:36:43.064Z,14.80
2023-04-06T09:39:09.854Z,22.27
2023-04-06T09:41:37.629Z,14.83
2023-04-06T09:44:09.464Z,14.33
2023-04-06T09:46:59.852Z,16.77
2023-04-06T09:49:34.573Z,17.67
2023-04-06T09:52:05.266Z,15.07
2023-04-06T09:54:33.064Z,13.87
2023-04-06T09:57:14.647Z,14.40
2023-04-06T10:00:12.096Z,13.00
2023-04-06T10:03:03.586Z,13.80
2023-04-06T10:05:49.269Z,13.43
2023-04-06T10:08:17.479Z,14.07
2023-04-06T10:10:44.539Z,12.70
2023-04-06T10:13:13.043Z,12.33
2023-04-06T10:15:41.524Z,13.57
2023-04-06T10:18:09.673Z,13.30
2023-04-06T10:21:01.553Z,15.00
2023-04-06T10:23:40.832Z,12.77
2023-04-06T10:26:18.674Z,13.17
2023-04-06T10:28:48.950Z,14.20
2023-04-06T10:31:16.368Z,12.83
2023-04-06T10:33:53.984Z,16.03
2023-04-06T10:36:30.355Z,11.90
2023-04-06T10:39:01.191Z,15.00
2023-04-06T10:41:42.098Z,12.30
2023-04-06T10:44:09.194Z,14.13
2023-04-06T10:46:36.214Z,14.33
2023-04-06T10:49:21.881Z,12.27
2023-04-06T10:51:57.118Z,13.47
2023-04-06T10:54:27.770Z,11.73
2023-04-06T10:56:54.697Z,11.93
2023-04-06T10:59:23.104Z,14.37
2023-04-06T11:01:50.502Z,12.83
2023-04-06T11:04:19.406Z,13.07
2023-04-06T11:06:51.720Z,11.87
2023-04-06T11:09:29.870Z,12.43
2023-04-06T11:11:57.785Z,13.77
2023-04-06T11:14:24.698Z,11.70
2023-04-06T11:16:51.892Z,13.53
2023-04-06T11:19:19.355Z,14.50
2023-04-06T11:21:48.579Z,12.17
2023-04-06T11:24:25.926Z,13.80
2023-04-06T11:26:59.820Z,16.23
2023-04-06T11:29:31.780Z,14.20
2023-04-06T11:32:08.197Z,13.23
2023-04-06T11:34:38.575Z,11.47
2023-04-06T11:37:11.391Z,16.30
2023-04-06T11:39:44.901Z,11.67
2023-04-06T11:42:11.684Z,12.87
2023-04-06T11:44:41.556Z,12.37
2023-04-06T11:47:11.024Z,13.50
2023-04-06T11:49:40.782Z,12.83
2023-04-06T11:52:23.596Z,10.80
2023-04-06T11:54:57.441Z,12.03
2023-04-06T11:57:28.866Z,13.47
2023-04-06T11:59:56.487Z,12.67
2023-04-06T12:02:23.672Z,11.93
2023-04-06T12:04:50.575Z,11.63
2023-04-06T12:07:17.568Z,13.00
2023-04-06T12:09:44.604Z,14.80
2023-04-06T12:12:11.479Z,14.73
2023-04-06T12:14:38.334Z,12.03
2023-04-06T12:17:05.323Z,14.57
2023-04-06T12:19:32.709Z,14.33
2023-04-06T12:21:59.833Z,12.57
2023-04-06T12:24:26.845Z,14.43
2023-04-06T12:27:06.413Z,14.97
2023-04-06T12:29:36.001Z,14.27
2023-04-06T12:32:02.907Z,11.80
2023-04-06T12:34:29.838Z,11.87
2023-04-06T12:36:57.080Z,11.23
2023-04-06T12:39:24.688Z,14.50
2023-04-06T12:41:51.960Z,13.17
2023-04-06T12:44:18.800Z,13.67
2023-04-06T12:46:46.566Z,12.13
2023-04-06T12:49:13.889Z,13.27
2023-04-06T12:51:40.766Z,13.23
2023-04-06T12:54:07.578Z,12.60
2023-04-06T12:56:34.414Z,12.10
2023-04-06T12:59:01.657Z,19.20
2023-04-06T13:01:29.039Z,12.13
2023-04-06T13:03:58.734Z,14.63
2023-04-06T13:06:28.525Z,11.87
2023-04-06T13:08:56.313Z,13.10
2023-04-06T13:11:26.925Z,12.93
2023-04-06T13:13:55.048Z,11.47
2023-04-06T13:16:22.100Z,10.30
2023-04-06T13:18:48.967Z,10.70
2023-04-06T13:21:17.229Z,14.57
2023-04-06T13:23:45.023Z,12.57
2023-04-06T13:26:14.176Z,15.00
2023-04-06T13:28:41.460Z,15.37
2023-04-06T13:31:09.297Z,12.93
2023-04-06T13:33:36.720Z,11.77
2023-04-06T13:36:04.541Z,11.63
2023-04-06T13:38:32.118Z,14.13
2023-04-06T13:40:59.073Z,11.27
2023-04-06T13:43:27.804Z,13.83
2023-04-06T13:45:56.612Z,11.73
2023-04-06T13:48:24.212Z,9.67
2023-04-06T13:50:51.157Z,10.57
2023-04-06T13:53:18.722Z,10.00
2023-04-06T13:55:53.477Z,10.57
2023-04-06T13:58:20.395Z,11.33
2023-04-06T14:00:47.413Z,10.17
2023-04-06T14:03:14.500Z,13.87
2023-04-06T14:05:41.761Z,11.63
2023-04-06T14:08:08.569Z,10.83
2023-04-06T14:10:43.215Z,10.77
2023-04-06T14:13:10.584Z,9.77
2023-04-06T14:15:38.427Z,9.80
2023-04-06T14:18:05.546Z,8.40
2023-04-06T14:20:33.906Z,11.57
2023-04-06T14:23:02.696Z,9.17
2023-04-06T14:25:32.405Z,7.53
2023-04-06T14:27:59.320Z,10.07
2023-04-06T14:30:26.270Z,12.27
2023-04-06T14:32:53.383Z,9.00
2023-04-06T14:35:20.441Z,9.53
2023-04-06T14:37:48.105Z,6.93
2023-04-06T14:40:15.063Z,11.30
2023-04-06T14:42:42.114Z,8.87
2023-04-06T14:45:09.342Z,9.57
2023-04-06T14:47:36.355Z,11.43
2023-04-06T14:50:03.646Z,8.10
2023-04-06T14:52:32.594Z,7.63
2023-04-06T14:54:59.899Z,7.77
2023-04-06T14:57:26.768Z,8.00
2023-04-06T14:59:56.588Z,9.00
2023-04-06T15:02:23.607Z,8.87
2023-04-06T15:04:53.182Z,10.40
2023-04-06T15:07:21.096Z,8.27
2023-04-06T15:09:47.902Z,13.07
2023-04-06T15:12:14.921Z,8.77
2023-04-06T15:14:41.762Z,9.03
2023-04-06T15:17:08.584Z,9.70
2023-04-06T15:19:35.481Z,8.30
2023-04-06T15:22:02.316Z,9.97
2023-04-06T15:24:29.462Z,8.40
2023-04-06T15:26:56.739Z,8.33
2023-04-06T15:29:23.686Z,12.43
2023-04-06T15:31:50.533Z,7.50
2023-04-06T15:34:17.382Z,8.23
2023-04-06T15:36:46.472Z,9.63
2023-04-06T15:39:14.455Z,8.03
2023-04-06T15:41:41.533Z,10.53
2023-04-06T15:44:08.392Z,8.80
2023-04-06T15:46:35.305Z,9.67
2023-04-06T15:49:02.152Z,9.27
2023-04-06T15:51:30.104Z,8.40
2023-04-06T15:53:58.501Z,10.70
2023-04-06T15:56:25.438Z,11.47
2023-04-06T15:58:52.407Z,8.00
2023-04-06T16:01:19.575Z,9.73
2023-04-06T16:03:46.908Z,9.27
2023-04-06T16:06:13.939Z,9.40
2023-04-06T16:08:41.580Z,7.83
2023-04-06T16:11:09.658Z,6.90
2023-04-06T16:13:36.921Z,7.17
2023-04-06T16:16:05.969Z,8.10
2023-04-06T16:18:35.747Z,6.77
2023-04-06T16:21:04.104Z,8.93
2023-04-06T16:23:31.173Z,6.57
2023-04-06T16:25:58.298Z,7.10
2023-04-06T16:28:25.612Z,7.50
2023-04-06T16:30:52.957Z,6.97
2023-04-06T16:33:19.907Z,7.63
2023-04-06T16:35:48.086Z,7.00
2023-04-06T16:38:16.234Z,9.33
2023-04-06T16:40:43.155Z,6.53
2023-04-06T16:43:10.321Z,6.87
2023-04-06T16:45:38.433Z,9.23
2023-04-06T16:48:06.259Z,6.77
2023-04-06T16:50:33.551Z,6.47
2023-04-06T16:53:00.533Z,7.60
2023-04-06T16:55:27.473Z,9.23
2023-04-06T16:57:57.327Z,8.57
2023-04-06T17:00:24.398Z,10.30
2023-04-06T17:02:51.650Z,7.90
2023-04-06T17:05:24.505Z,9.87
2023-04-06T17:07:51.842Z,8.33
2023-04-06T17:10:24.255Z,8.20
2023-04-06T17:13:00.737Z,9.13
2023-04-06T17:15:29.339Z,8.70
2023-04-06T17:17:56.400Z,10.37
2023-04-06T17:20:23.259Z,8.57
2023-04-06T17:22:50.165Z,8.97
2023-04-06T17:25:17.041Z,11.37
2023-04-06T17:27:44.537Z,10.77
2023-04-06T17:30:13.361Z,9.83
2023-04-06T17:32:41.495Z,9.93
2023-04-06T17:35:11.614Z,9.73
2023-04-06T17:37:38.928Z,9.43
2023-04-06T17:40:06.912Z,12.43
2023-04-06T17:42:33.739Z,10.73
2023-04-06T17:45:01.011Z,9.80
2023-04-06T17:47:32.214Z,10.73
2023-04-06T17:50:00.855Z,9.67
2023-04-06T17:52:29.114Z,11.13
2023-04-06T17:54:56.671Z,10.60
2023-04-06T17:57:23.882Z,9.87
2023-04-06T17:59:51.015Z,11.57
2023-04-06T18:02:19.836Z,10.97
2023-04-06T18:04:47.130Z,9.50
2023-04-06T18:07:13.995Z,11.17
2023-04-06T18:09:40.941Z,8.23
2023-04-06T18:12:07.753Z,9.20
2023-04-06T18:14:34.733Z,10.90
2023-04-06T18:17:01.752Z,12.17
2023-04-06T18:19:28.862Z,10.70
2023-04-06T18:21:55.883Z,12.90
2023-04-06T18:24:32.035Z,10.90
2023-04-06T18:27:07.797Z,9.57
2023-04-06T18:29:36.003Z,10.67
2023-04-06T18:32:02.866Z,11.30
2023-04-06T18:34:29.702Z,10.50
2023-04-06T18:36:56.746Z,11.83
2023-04-06T18:39:23.560Z,10.50
2023-04-06T18:41:50.326Z,11.60
2023-04-06T18:44:17.146Z,11.37
2023-04-06T18:46:45.912Z,12.03
2023-04-06T18:49:12.843Z,11.37
2023-04-06T18:51:41.427Z,13.60
2023-04-06T18:54:08.401Z,11.00
2023-04-06T18:56:38.303Z,11.83
2023-04-06T18:59:05.203Z,11.20
2023-04-06T19:01:32.964Z,11.30
2023-04-06T19:04:01.008Z,14.57
2023-04-06T19:06:28.246Z,13.27
2023-04-06T19:08:56.022Z,13.30
2023-04-06T19:11:24.947Z,12.20
2023-04-06T19:13:54.053Z,14.33
2023-04-06T19:16:21.069Z,12.47
2023-04-06T19:18:47.912Z,13.30
2023-04-06T19:21:23.688Z,13.00
2023-04-06T19:23:54.859Z,13.20
2023-04-06T19:26:23.660Z,13.33
2023-04-06T19:28:50.567Z,10.77
2023-04-06T19:31:19.128Z,10.97
2023-04-06T19:33:47.199Z,11.00
2023-04-06T19:36:14.372Z,12.57
2023-04-06T19:38:41.889Z,10.47
2023-04-06T19:41:08.747Z,8.87
2023-04-06T19:43:35.778Z,10.07
2023-04-06T19:46:03.144Z,8.37
2023-04-06T19:48:30.519Z,8.27
2023-04-06T19:50:57.312Z,8.30
2023-04-06T19:53:24.357Z,7.50
2023-04-06T19:55:51.474Z,7.50
2023-04-06T19:58:18.986Z,8.27
2023-04-06T20:00:45.919Z,8.07
2023-04-06T20:03:13.044Z,7.87
2023-04-06T20:05:40.155Z,7.67
2023-04-06T20:08:07.011Z,8.13
2023-04-06T20:10:34.061Z,8.27
2023-04-06T20:13:01.404Z,8.00
2023-04-06T20:15:29.525Z,9.27
2023-04-06T20:17:56.729Z,7.87
2023-04-06T20:20:23.704Z,8.97
2023-04-06T20:22:50.849Z,8.70
2023-04-06T20:25:19.687Z,8.93
2023-04-06T20:27:46.472Z,9.57
2023-04-06T20:30:17.343Z,9.57
2023-04-06T20:32:44.441Z,10.40
2023-04-06T20:35:11.467Z,9.73
2023-04-06T20:37:38.612Z,9.23
2023-04-06T20:40:06.769Z,8.50
2023-04-06T20:42:34.329Z,9.70
2023-04-06T20:45:03.219Z,15.53
2023-04-06T20:47:31.494Z,11.97
2023-04-06T20:49:58.798Z,10.40
2023-04-06T20:52:26.638Z,11.07
2023-04-06T20:54:54.619Z,11.00
2023-04-06T20:57:21.404Z,9.63
2023-04-06T20:59:48.356Z,9.63
2023-04-06T21:02:15.423Z,10.03
2023-04-06T21:04:43.848Z,9.50
2023-04-06T21:07:10.887Z,9.37
2023-04-06T21:09:39.763Z,10.63
2023-04-06T21:12:07.587Z,10.77
2023-04-06T21:14:34.848Z,10.50
2023-04-06T21:17:02.280Z,10.47
2023-04-06T21:19:29.165Z,9.43
2023-04-06T21:21:56.334Z,10.50
2023-04-06T21:24:23.197Z,11.37
2023-04-06T21:26:50.048Z,10.90
2023-04-06T21:29:16.999Z,10.90
2023-04-06T21:31:43.888Z,10.20
2023-04-06T21:34:12.275Z,10.93
2023-04-06T21:36:40.594Z,10.00
2023-04-06T21:39:07.897Z,11.03
2023-04-06T21:41:34.898Z,9.20
2023-04-06T21:44:01.985Z,9.70
2023-04-06T21:46:28.868Z,10.93
2023-04-06T21:48:55.906Z,10.03
2023-04-06T21:51:23.701Z,10.23
2023-04-06T21:53:52.409Z,9.20
2023-04-06T21:56:24.823Z,10.10
2023-04-06T21:58:52.673Z,9.10
2023-04-06T22:01:20.730Z,8.70
2023-04-06T22:03:48.462Z,10.27
2023-04-06T22:06:15.491Z,8.93
2023-04-06T22:08:42.699Z,9.77
2023-04-06T22:11:11.609Z,8.93
2023-04-06T22:13:39.240Z,10.00
2023-04-06T22:16:06.974Z,9.07
2023-04-06T22:18:36.614Z,9.57
2023-04-06T22:21:05.461Z,9.00
2023-04-06T22:23:32.403Z,8.40
2023-04-06T22:25:59.610Z,9.00
2023-04-06T22:28:26.993Z,8.07
2023-04-06T22:30:53.838Z,8.23
2023-04-06T22:33:20.624Z,8.93
2023-04-06T22:35:47.475Z,8.80
2023-04-06T22:38:14.318Z,9.10
2023-04-06T22:40:41.088Z,9.00
2023-04-06T22:43:08.085Z,9.50
2023-04-06T22:45:34.956Z,8.47
2023-04-06T22:48:01.760Z,8.93
2023-04-06T22:50:28.612Z,7.33
2023-04-06T22:52:55.480Z,8.97
2023-04-06T22:55:22.512Z,8.23
2023-04-06T22:57:49.269Z,7.73
2023-04-06T23:00:16.657Z,7.70
2023-04-06T23:02:43.699Z,7.83
2023-04-06T23:05:11.005Z,8.00
2023-04-06T23:07:37.820Z,7.27
2023-04-06T23:10:05.004Z,7.50
2023-04-06T23:12:31.790Z,7.77
2023-04-06T23:14:58.577Z,6.40
2023-04-06T23:17:25.780Z,7.00
2023-04-06T23:19:52.646Z,7.03
2023-04-06T23:22:19.736Z,7.43
2023-04-06T23:24:46.588Z,7.33
2023-04-06T23:27:13.369Z,6.83
2023-04-06T23:29:40.291Z,5.77
2023-04-06T23:32:07.254Z,6.73
2023-04-06T23:34:34.067Z,6.87
2023-04-06T23:37:02.889Z,6.57
2023-04-06T23:39:30.436Z,6.30
2023-04-06T23:42:01.455Z,6.60
2023-04-06T23:44:31.533Z,6.57
2023-04-06T23:46:58.609Z,6.40
2023-04-06T23:49:25.474Z,6.13
2023-04-06T23:51:52.319Z,5.23
2023-04-06T23:54:19.099Z,5.80
2023-04-06T23:56:46.241Z,5.40
2023-04-06T23:59:13.086Z,6.67
